Terminal Aerodrome Forecast
Issued by NWS

Home | Current Version | Previous Version | Text Only | Print | Product List | Glossary On
Versions: 1 2 3 4 5 6 7 8 9 10 11 12 13 14 15 16 17 18
000
FTUS44 KLIX 290521
TAFGPT
TAF
KGPT 290521Z 2906/3006 VRB03KT P6SM SCT060
     FM290900 17005KT 5SM BR BKN015
     FM291100 15004KT 3SM BR BKN008
     FM291400 14008KT P6SM BKN015
     FM291500 14010KT P6SM BKN060
     FM291700 15011KT P6SM SCT150=

USA.gov is the U.S. government's official web portal to all federal, state and local government web resources and services.